createdAt,value
2018-12-24T00:01:26.540Z,3.77
2018-12-24T00:04:31.733Z,3.74
2018-12-24T00:07:36.807Z,3.67
2018-12-24T00:10:42.007Z,3.63
2018-12-24T00:13:47.091Z,3.60
2018-12-24T00:16:52.256Z,3.55
2018-12-24T00:19:57.323Z,3.53
2018-12-24T00:23:02.571Z,3.54
2018-12-24T00:26:07.641Z,3.54
2018-12-24T00:29:12.800Z,3.53
2018-12-24T00:32:17.866Z,3.54
2018-12-24T00:35:23.130Z,3.55
2018-12-24T00:38:28.204Z,3.55
2018-12-24T00:41:33.415Z,3.53
2018-12-24T00:44:38.490Z,3.54
2018-12-24T00:47:43.996Z,3.52
2018-12-24T00:50:49.469Z,3.53
2018-12-24T00:53:54.993Z,3.51
2018-12-24T00:57:00.368Z,3.49
2018-12-24T01:00:06.566Z,3.47
2018-12-24T01:03:11.938Z,3.45
2018-12-24T01:06:17.579Z,3.44
2018-12-24T01:09:22.953Z,3.43
2018-12-24T01:12:28.598Z,3.40
2018-12-24T01:15:33.971Z,3.39
2018-12-24T01:18:39.487Z,3.40
2018-12-24T01:21:44.862Z,3.39
2018-12-24T01:24:50.386Z,3.37
2018-12-24T01:27:55.759Z,3.35
2018-12-24T01:31:01.382Z,3.35
2018-12-24T01:34:06.805Z,3.36
2018-12-24T01:37:12.374Z,3.34
2018-12-24T01:40:17.745Z,3.35
2018-12-24T01:43:23.275Z,3.36
2018-12-24T01:46:28.676Z,3.36
2018-12-24T01:49:34.131Z,3.34
2018-12-24T01:52:39.534Z,3.34
2018-12-24T01:55:45.055Z,3.34
2018-12-24T01:58:50.432Z,3.34
2018-12-24T02:01:55.955Z,3.35
2018-12-24T02:05:01.422Z,3.33
2018-12-24T02:08:06.952Z,3.32
2018-12-24T02:11:12.322Z,3.31
2018-12-24T02:14:17.848Z,3.31
2018-12-24T02:17:23.221Z,3.29
2018-12-24T02:20:28.739Z,3.28
2018-12-24T02:23:34.124Z,3.28
2018-12-24T02:26:39.634Z,3.25
2018-12-24T02:29:45.280Z,3.22
2018-12-24T02:32:50.834Z,3.21
2018-12-24T02:35:56.217Z,3.22
2018-12-24T02:39:01.815Z,3.20
2018-12-24T02:42:07.193Z,3.20
2018-12-24T02:45:12.727Z,3.20
2018-12-24T02:48:18.116Z,3.19
2018-12-24T02:51:23.635Z,3.19
2018-12-24T02:54:29.214Z,3.17
2018-12-24T02:57:35.229Z,3.17
2018-12-24T03:00:40.616Z,3.15
2018-12-24T03:03:46.151Z,3.13
2018-12-24T03:06:51.529Z,3.10
2018-12-24T03:09:57.025Z,3.10
2018-12-24T03:13:03.280Z,3.07
2018-12-24T03:16:08.961Z,3.07
2018-12-24T03:19:14.343Z,3.03
2018-12-24T03:22:19.842Z,3.03
2018-12-24T03:25:25.213Z,3.03
2018-12-24T03:28:30.721Z,3.01
2018-12-24T03:31:36.096Z,3.01
2018-12-24T03:34:41.621Z,3.00
2018-12-24T03:37:46.996Z,3.01
2018-12-24T03:40:53.082Z,3.02
2018-12-24T03:43:58.462Z,3.01
2018-12-24T03:47:04.022Z,3.00
2018-12-24T03:50:09.393Z,3.00
2018-12-24T03:53:14.917Z,3.01
2018-12-24T03:56:20.385Z,3.00
2018-12-24T03:59:25.857Z,3.00
2018-12-24T04:02:31.228Z,3.02
2018-12-24T04:05:36.808Z,3.00
2018-12-24T04:08:42.192Z,2.97
2018-12-24T04:11:47.696Z,2.96
2018-12-24T04:14:53.170Z,2.95
2018-12-24T04:17:58.663Z,2.94
2018-12-24T04:21:04.038Z,2.91
2018-12-24T04:24:09.600Z,2.92
2018-12-24T04:27:14.962Z,2.92
2018-12-24T04:30:20.484Z,2.93
2018-12-24T04:33:25.865Z,2.96
2018-12-24T04:36:31.380Z,2.97
2018-12-24T04:39:36.758Z,2.97
2018-12-24T04:42:42.479Z,2.97
2018-12-24T04:45:47.856Z,2.98
2018-12-24T04:48:53.371Z,2.99
2018-12-24T04:51:58.797Z,3.00
2018-12-24T04:55:04.369Z,2.97
2018-12-24T04:58:09.841Z,2.97
2018-12-24T05:01:15.363Z,2.97
2018-12-24T05:04:20.744Z,2.98
2018-12-24T05:07:26.534Z,2.99
2018-12-24T05:10:31.911Z,2.99
2018-12-24T05:13:40.951Z,3.00
2018-12-24T05:16:44.548Z,2.98
2018-12-24T05:19:50.086Z,2.97
2018-12-24T05:22:55.469Z,2.97
2018-12-24T05:26:00.990Z,2.98
2018-12-24T05:29:06.369Z,2.96
2018-12-24T05:32:11.881Z,2.94
2018-12-24T05:35:17.262Z,2.93
2018-12-24T05:38:22.777Z,2.94
2018-12-24T05:41:28.207Z,2.92
2018-12-24T05:44:33.772Z,2.93
2018-12-24T05:47:39.151Z,2.93
2018-12-24T05:50:44.667Z,2.93
2018-12-24T05:53:50.047Z,2.90
2018-12-24T05:56:55.562Z,2.89
2018-12-24T06:00:01.028Z,2.89
2018-12-24T06:03:06.543Z,2.87
2018-12-24T06:06:11.921Z,2.85
2018-12-24T06:09:17.549Z,2.82
2018-12-24T06:12:22.931Z,2.82
2018-12-24T06:15:28.582Z,2.81
2018-12-24T06:18:34.264Z,2.83
2018-12-24T06:21:39.751Z,2.85
2018-12-24T06:24:45.130Z,2.82
2018-12-24T06:27:50.592Z,2.82
2018-12-24T06:30:55.965Z,2.82
2018-12-24T06:34:01.431Z,2.81
2018-12-24T06:37:06.813Z,2.79
2018-12-24T06:40:12.331Z,2.80
2018-12-24T06:43:17.711Z,2.79
2018-12-24T06:46:23.225Z,2.80
2018-12-24T06:49:28.649Z,2.82
2018-12-24T06:52:34.221Z,2.83
2018-12-24T06:55:39.601Z,2.86
2018-12-24T06:58:45.115Z,2.89
2018-12-24T07:01:50.593Z,2.89
2018-12-24T07:04:56.111Z,2.91
2018-12-24T07:08:01.491Z,2.89
2018-12-24T07:11:07.007Z,2.89
2018-12-24T07:14:15.529Z,2.89
2018-12-24T07:17:20.008Z,2.90
2018-12-24T07:20:25.383Z,2.90
2018-12-24T07:23:30.943Z,2.90
2018-12-24T07:26:36.325Z,2.92
2018-12-24T07:29:41.841Z,2.91
2018-12-24T07:32:47.221Z,2.91
2018-12-24T07:35:53.038Z,2.93
2018-12-24T07:38:58.420Z,2.93
2018-12-24T07:42:03.881Z,2.93
2018-12-24T07:45:09.259Z,2.93
2018-12-24T07:48:14.830Z,2.94
2018-12-24T07:51:20.209Z,2.94
2018-12-24T07:54:25.720Z,2.94
2018-12-24T07:57:31.422Z,2.93
2018-12-24T08:00:36.981Z,2.93
2018-12-24T08:03:42.425Z,2.88
2018-12-24T08:06:48.022Z,2.80
2018-12-24T08:09:53.404Z,2.74
2018-12-24T08:12:59.018Z,2.66
2018-12-24T08:16:04.474Z,2.55
2018-12-24T08:19:10.134Z,2.43
2018-12-24T08:22:15.498Z,2.32
2018-12-24T08:25:20.974Z,2.22
2018-12-24T08:28:26.351Z,2.13
2018-12-24T08:31:31.907Z,2.07
2018-12-24T08:34:37.282Z,2.01
2018-12-24T08:37:42.902Z,1.94
2018-12-24T08:40:48.282Z,1.81
2018-12-24T08:43:53.794Z,1.69
2018-12-24T08:46:59.181Z,1.53
2018-12-24T08:50:05.682Z,1.37
2018-12-24T08:53:11.063Z,1.27
2018-12-24T08:56:16.605Z,1.24
2018-12-24T08:59:21.981Z,1.16
2018-12-24T09:02:27.762Z,1.15
2018-12-24T09:05:33.149Z,1.14
2018-12-24T09:08:38.669Z,1.09
2018-12-24T09:11:44.051Z,1.08
2018-12-24T09:14:50.277Z,1.03
2018-12-24T09:17:55.965Z,0.96
2018-12-24T09:21:01.516Z,0.93
2018-12-24T09:24:06.896Z,0.83
2018-12-24T09:27:12.414Z,0.82
2018-12-24T09:30:18.581Z,0.84
2018-12-24T09:33:24.124Z,0.89
2018-12-24T09:36:29.508Z,0.88
2018-12-24T09:39:35.015Z,0.84
2018-12-24T09:42:40.406Z,0.73
2018-12-24T09:45:47.754Z,0.61
2018-12-24T09:48:53.134Z,0.50
2018-12-24T09:51:58.647Z,0.47
2018-12-24T09:55:06.951Z,0.44
2018-12-24T09:58:12.515Z,0.41
2018-12-24T10:01:17.930Z,0.33
2018-12-24T10:04:25.742Z,0.33
2018-12-24T10:07:40.184Z,0.35
2018-12-24T10:10:45.358Z,0.36
2018-12-24T10:13:50.989Z,0.36
2018-12-24T10:16:56.684Z,0.37
2018-12-24T10:20:02.051Z,0.32
2018-12-24T10:23:07.554Z,0.31
2018-12-24T10:26:12.938Z,0.27
2018-12-24T10:29:19.615Z,0.30
2018-12-24T10:32:25.058Z,0.24
2018-12-24T10:35:30.573Z,0.22
2018-12-24T10:38:36.393Z,0.23
2018-12-24T10:41:41.893Z,0.25
2018-12-24T10:44:47.266Z,0.17
2018-12-24T10:47:52.778Z,0.15
2018-12-24T10:50:58.157Z,0.13
2018-12-24T10:54:03.663Z,0.04
2018-12-24T10:57:09.110Z,0.01
2018-12-24T11:00:14.663Z,-0.02
2018-12-24T11:03:20.112Z,-0.03
2018-12-24T11:06:25.691Z,-0.07
2018-12-24T11:09:31.608Z,-0.15
2018-12-24T11:12:37.429Z,-0.20
2018-12-24T11:15:42.810Z,-0.20
2018-12-24T11:18:48.374Z,-0.22
2018-12-24T11:21:53.768Z,-0.23
2018-12-24T11:24:59.260Z,-0.20
2018-12-24T11:28:04.642Z,-0.18
2018-12-24T11:31:10.156Z,-0.15
2018-12-24T11:34:15.543Z,-0.11
2018-12-24T11:37:21.227Z,-0.08
2018-12-24T11:40:26.615Z,-0.08
2018-12-24T11:43:32.491Z,-0.09
2018-12-24T11:46:37.859Z,-0.12
2018-12-24T11:49:43.349Z,-0.11
2018-12-24T11:52:50.283Z,-0.09
2018-12-24T11:55:55.784Z,-0.08
2018-12-24T11:59:01.239Z,-0.12
2018-12-24T12:02:10.035Z,-0.15
2018-12-24T12:05:13.860Z,-0.19
2018-12-24T12:08:19.614Z,-0.20
2018-12-24T12:11:24.997Z,-0.23
2018-12-24T12:14:30.611Z,-0.26
2018-12-24T12:17:35.994Z,-0.30
2018-12-24T12:20:41.516Z,-0.33
2018-12-24T12:23:47.221Z,-0.36
2018-12-24T12:26:52.715Z,-0.37
2018-12-24T12:29:58.108Z,-0.38
2018-12-24T12:33:03.703Z,-0.39
2018-12-24T12:36:09.169Z,-0.40
2018-12-24T12:39:14.801Z,-0.40
2018-12-24T12:42:20.231Z,-0.42
2018-12-24T12:45:25.900Z,-0.43
2018-12-24T12:48:31.283Z,-0.45
2018-12-24T12:51:36.800Z,-0.48
2018-12-24T12:54:42.187Z,-0.51
2018-12-24T12:57:47.675Z,-0.51
2018-12-24T13:00:53.141Z,-0.49
2018-12-24T13:03:58.693Z,-0.49
2018-12-24T13:07:04.074Z,-0.48
2018-12-24T13:10:09.587Z,-0.47
2018-12-24T13:13:15.055Z,-0.48
2018-12-24T13:16:20.593Z,-0.52
2018-12-24T13:19:26.134Z,-0.52
2018-12-24T13:22:31.686Z,-0.55
2018-12-24T13:25:37.126Z,-0.57
2018-12-24T13:28:42.597Z,-0.63
2018-12-24T13:31:47.973Z,-0.64
2018-12-24T13:34:53.463Z,-0.68
2018-12-24T13:37:58.843Z,-0.69
2018-12-24T13:41:04.460Z,-0.70
2018-12-24T13:44:09.916Z,-0.69
2018-12-24T13:47:15.455Z,-0.66
2018-12-24T13:50:58.476Z,-0.56
2018-12-24T13:54:04.281Z,-0.60
2018-12-24T13:57:09.557Z,-0.58
2018-12-24T14:00:15.024Z,-0.57
2018-12-24T14:03:20.301Z,-0.57
2018-12-24T14:06:25.739Z,-0.58
2018-12-24T14:09:31.013Z,-0.57
2018-12-24T14:12:36.415Z,-0.58
2018-12-24T14:15:41.779Z,-0.59
2018-12-24T14:18:47.203Z,-0.60
2018-12-24T14:21:52.479Z,-0.62
2018-12-24T14:24:59.048Z,-0.61
2018-12-24T14:28:04.282Z,-0.60
2018-12-24T14:31:09.704Z,-0.62
2018-12-24T14:34:16.568Z,-0.65
2018-12-24T14:37:22.025Z,-0.66
2018-12-24T14:40:27.309Z,-0.71
2018-12-24T14:43:32.713Z,-0.73
2018-12-24T14:46:37.996Z,-0.74
2018-12-24T14:49:43.404Z,-0.74
2018-12-24T14:52:48.684Z,-0.76
2018-12-24T14:55:54.094Z,-0.77
2018-12-24T14:58:59.382Z,-0.76
2018-12-24T15:02:04.741Z,-0.76
2018-12-24T15:05:10.018Z,-0.78
2018-12-24T15:08:15.479Z,-0.78
2018-12-24T15:11:20.767Z,-0.80
2018-12-24T15:14:26.129Z,-0.80
2018-12-24T15:17:31.443Z,-0.82
2018-12-24T15:20:36.850Z,-0.85
2018-12-24T15:23:42.127Z,-0.87
2018-12-24T15:26:47.542Z,-0.88
2018-12-24T15:29:52.820Z,-0.88
2018-12-24T15:32:58.224Z,-0.91
2018-12-24T15:36:03.501Z,-0.92
2018-12-24T15:39:08.915Z,-0.92
2018-12-24T15:42:14.193Z,-0.95
2018-12-24T15:45:19.591Z,-0.97
2018-12-24T15:48:24.933Z,-0.98
2018-12-24T15:51:30.297Z,-1.00
2018-12-24T15:54:35.577Z,-1.04
2018-12-24T15:57:40.985Z,-1.04
2018-12-24T16:00:46.260Z,-1.04
2018-12-24T16:03:51.694Z,-1.05
2018-12-24T16:06:56.955Z,-1.06
2018-12-24T16:10:02.314Z,-1.06
2018-12-24T16:13:07.589Z,-1.06
2018-12-24T16:16:13.051Z,-1.08
2018-12-24T16:19:18.429Z,-1.07
2018-12-24T16:22:23.847Z,-1.06
2018-12-24T16:25:29.116Z,-1.08
2018-12-24T16:28:34.531Z,-1.10
2018-12-24T16:31:39.813Z,-1.13
2018-12-24T16:34:45.222Z,-1.15
2018-12-24T16:37:50.511Z,-1.15
2018-12-24T16:40:55.890Z,-1.13
2018-12-24T16:44:01.168Z,-1.14
2018-12-24T16:47:06.601Z,-1.17
2018-12-24T16:50:11.882Z,-1.21
2018-12-24T16:53:17.239Z,-1.24
2018-12-24T16:56:22.522Z,-1.24
2018-12-24T16:59:28.080Z,-1.27
2018-12-24T17:02:33.363Z,-1.27
2018-12-24T17:05:38.771Z,-1.27
2018-12-24T17:08:44.044Z,-1.27
2018-12-24T17:11:49.462Z,-1.30
2018-12-24T17:14:54.746Z,-1.31
2018-12-24T17:18:02.159Z,-1.34
2018-12-24T17:21:07.177Z,-1.33
2018-12-24T17:24:12.681Z,-1.34
2018-12-24T17:27:17.955Z,-1.36
2018-12-24T17:30:23.368Z,-1.35
2018-12-24T17:33:28.644Z,-1.36
2018-12-24T17:36:34.062Z,-1.37
2018-12-24T17:39:39.336Z,-1.36
2018-12-24T17:42:44.749Z,-1.37
2018-12-24T17:45:50.027Z,-1.38
2018-12-24T17:48:55.445Z,-1.41
2018-12-24T17:52:00.726Z,-1.39
2018-12-24T17:55:06.531Z,-1.41
2018-12-24T17:58:11.789Z,-1.43
2018-12-24T18:01:17.229Z,-1.45
2018-12-24T18:04:22.508Z,-1.45
2018-12-24T18:07:27.918Z,-1.46
2018-12-24T18:10:33.192Z,-1.47
2018-12-24T18:13:38.606Z,-1.47
2018-12-24T18:16:43.879Z,-1.48
2018-12-24T18:19:49.297Z,-1.50
2018-12-24T18:22:54.729Z,-1.47
2018-12-24T18:26:00.080Z,-1.50
2018-12-24T18:29:05.440Z,-1.54
2018-12-24T18:32:10.881Z,-1.53
2018-12-24T18:35:16.161Z,-1.53
2018-12-24T18:38:21.563Z,-1.53
2018-12-24T18:41:26.840Z,-1.53
2018-12-24T18:44:32.257Z,-1.53
2018-12-24T18:47:37.539Z,-1.54
2018-12-24T18:50:42.948Z,-1.54
2018-12-24T18:53:48.224Z,-1.54
2018-12-24T18:56:53.750Z,-1.53
2018-12-24T18:59:59.020Z,-1.56
2018-12-24T19:03:04.428Z,-1.56
2018-12-24T19:06:09.704Z,-1.56
2018-12-24T19:09:15.117Z,-1.56
2018-12-24T19:12:20.419Z,-1.54
2018-12-24T19:15:25.804Z,-1.53
2018-12-24T19:18:31.159Z,-1.54
2018-12-24T19:21:43.722Z,-1.53
2018-12-24T19:24:43.520Z,-1.54
2018-12-24T19:27:48.924Z,-1.53
2018-12-24T19:30:54.204Z,-1.53
2018-12-24T19:33:59.622Z,-1.54
2018-12-24T19:37:04.914Z,-1.55
2018-12-24T19:40:10.403Z,-1.53
2018-12-24T19:43:15.682Z,-1.54
2018-12-24T19:46:21.359Z,-1.53
2018-12-24T19:49:26.811Z,-1.51
2018-12-24T19:52:32.198Z,-1.48
2018-12-24T19:55:37.476Z,-1.46
2018-12-24T19:58:42.887Z,-1.45
2018-12-24T20:01:48.165Z,-1.44
2018-12-24T20:04:53.548Z,-1.52
2018-12-24T20:07:59.067Z,-1.52
2018-12-24T20:11:04.829Z,-1.57
2018-12-24T20:14:10.104Z,-1.58
2018-12-24T20:17:15.466Z,-1.63
2018-12-24T20:20:20.746Z,-1.63
2018-12-24T20:23:26.112Z,-1.63
2018-12-24T20:26:31.383Z,-1.65
2018-12-24T20:29:36.752Z,-1.66
2018-12-24T20:32:42.033Z,-1.71
2018-12-24T20:35:47.559Z,-1.70
2018-12-24T20:38:52.851Z,-1.73
2018-12-24T20:41:58.348Z,-1.74
2018-12-24T20:45:03.702Z,-1.73
2018-12-24T20:48:09.229Z,-1.73
2018-12-24T20:51:16.238Z,-1.74
2018-12-24T20:54:22.776Z,-1.75
2018-12-24T20:57:28.070Z,-1.75
2018-12-24T21:00:33.470Z,-1.76
2018-12-24T21:03:38.748Z,-1.79
2018-12-24T21:06:44.280Z,-1.79
2018-12-24T21:09:49.533Z,-1.80
2018-12-24T21:12:54.950Z,-1.83
2018-12-24T21:16:00.228Z,-1.84
2018-12-24T21:19:05.645Z,-1.87
2018-12-24T21:22:10.925Z,-1.87
2018-12-24T21:25:16.368Z,-1.91
2018-12-24T21:28:21.717Z,-1.94
2018-12-24T21:31:27.119Z,-1.96
2018-12-24T21:34:32.408Z,-1.97
2018-12-24T21:37:37.817Z,-1.99
2018-12-24T21:40:43.236Z,-2.04
2018-12-24T21:43:48.917Z,-2.04
2018-12-24T21:46:54.417Z,-2.03
2018-12-24T21:49:59.804Z,-2.00
2018-12-24T21:53:05.390Z,-1.99
2018-12-24T21:56:10.977Z,-1.97
2018-12-24T21:59:16.560Z,-1.94
2018-12-24T22:02:22.114Z,-1.97
2018-12-24T22:05:27.390Z,-1.95
2018-12-24T22:08:32.821Z,-1.95
2018-12-24T22:11:38.093Z,-1.95
2018-12-24T22:14:43.825Z,-1.97
2018-12-24T22:17:49.104Z,-1.94
2018-12-24T22:20:54.480Z,-1.96
2018-12-24T22:23:59.758Z,-1.93
2018-12-24T22:27:05.273Z,-1.94
2018-12-24T22:30:10.817Z,-1.93
2018-12-24T22:33:16.190Z,-1.95
2018-12-24T22:36:21.472Z,-1.93
2018-12-24T22:39:26.957Z,-1.96
2018-12-24T22:42:32.281Z,-1.97
2018-12-24T22:45:37.755Z,-1.98
2018-12-24T22:48:43.033Z,-2.01
2018-12-24T22:51:48.439Z,-2.05
2018-12-24T22:54:53.711Z,-2.08
2018-12-24T22:57:59.231Z,-2.11
2018-12-24T23:01:04.584Z,-2.14
2018-12-24T23:04:10.024Z,-2.17
2018-12-24T23:07:15.303Z,-2.13
2018-12-24T23:10:20.713Z,-2.14
2018-12-24T23:13:25.991Z,-2.15
2018-12-24T23:16:31.409Z,-2.17
2018-12-24T23:19:36.729Z,-2.15
2018-12-24T23:22:42.572Z,-2.18
2018-12-24T23:25:48.227Z,-2.20
2018-12-24T23:28:53.700Z,-2.22
2018-12-24T23:31:59.119Z,-2.24
2018-12-24T23:35:04.528Z,-2.27
2018-12-24T23:38:09.804Z,-2.27
2018-12-24T23:41:15.285Z,-2.31
2018-12-24T23:44:20.634Z,-2.31
2018-12-24T23:47:26.077Z,-2.30
2018-12-24T23:50:31.351Z,-2.30
2018-12-24T23:53:37.073Z,-2.30
2018-12-24T23:56:42.348Z,-2.26
2018-12-24T23:59:47.764Z,-2.26
